createdAt,value
2018-05-27T00:01:48.196Z,24.30
2018-05-27T00:04:17.102Z,21.87
2018-05-27T00:06:45.537Z,21.40
2018-05-27T00:09:13.552Z,27.23
2018-05-27T00:11:41.307Z,23.83
2018-05-27T00:14:09.069Z,29.95
2018-05-27T00:16:36.734Z,23.38
2018-05-27T00:19:04.506Z,24.42
2018-05-27T00:21:32.149Z,30.48
2018-05-27T00:24:00.225Z,26.70
2018-05-27T00:26:28.294Z,29.55
2018-05-27T00:28:57.095Z,27.83
2018-05-27T00:31:24.895Z,27.25
2018-05-27T00:33:52.719Z,26.50
2018-05-27T00:36:20.584Z,24.05
2018-05-27T00:38:48.246Z,28.20
2018-05-27T00:41:16.422Z,25.55
2018-05-27T00:43:44.021Z,26.98
2018-05-27T00:46:13.329Z,24.60
2018-05-27T00:48:42.377Z,28.35
2018-05-27T00:51:10.133Z,23.25
2018-05-27T00:53:50.186Z,29.25
2018-05-27T00:56:18.661Z,27.00
2018-05-27T00:58:46.421Z,28.58
2018-05-27T01:01:14.193Z,23.48
2018-05-27T01:03:42.254Z,25.35
2018-05-27T01:06:10.433Z,22.25
2018-05-27T01:08:38.097Z,24.52
2018-05-27T01:11:06.265Z,25.83
2018-05-27T01:13:34.437Z,26.30
2018-05-27T01:16:02.198Z,27.48
2018-05-27T01:18:30.275Z,25.27
2018-05-27T01:20:58.438Z,24.95
2018-05-27T01:23:26.314Z,27.80
2018-05-27T01:25:55.510Z,23.70
2018-05-27T01:28:23.163Z,25.12
2018-05-27T01:30:50.768Z,24.05
2018-05-27T01:33:19.155Z,24.80
2018-05-27T01:35:48.407Z,22.87
2018-05-27T01:38:16.169Z,23.33
2018-05-27T01:40:44.243Z,27.13
2018-05-27T01:43:12.415Z,27.17
2018-05-27T01:45:40.197Z,25.15
2018-05-27T01:48:08.657Z,24.45
2018-05-27T01:50:36.417Z,26.77
2018-05-27T01:53:05.206Z,26.40
2018-05-27T01:55:32.973Z,23.42
2018-05-27T01:58:00.626Z,24.70
2018-05-27T02:00:28.290Z,24.90
2018-05-27T02:02:56.666Z,24.55
2018-05-27T02:05:24.444Z,24.77
2018-05-27T02:07:52.094Z,25.90
2018-05-27T02:10:20.275Z,24.90
2018-05-27T02:12:48.444Z,26.52
2018-05-27T02:15:16.102Z,28.05
2018-05-27T02:17:44.486Z,27.65
2018-05-27T02:20:12.547Z,32.47
2018-05-27T02:22:40.207Z,30.65
2018-05-27T02:25:09.001Z,28.33
2018-05-27T02:27:36.764Z,25.60
2018-05-27T02:30:04.525Z,26.60
2018-05-27T02:32:32.187Z,26.33
2018-05-27T02:35:00.256Z,26.33
2018-05-27T02:37:28.322Z,25.95
2018-05-27T02:39:57.329Z,27.37
2018-05-27T02:42:24.987Z,28.10
2018-05-27T02:44:52.752Z,25.60
2018-05-27T02:47:20.614Z,27.15
2018-05-27T02:49:48.268Z,25.23
2018-05-27T02:52:16.453Z,28.95
2018-05-27T02:54:45.333Z,29.08
2018-05-27T02:57:13.098Z,25.55
2018-05-27T02:59:42.299Z,25.73
2018-05-27T03:02:10.365Z,27.80
2018-05-27T03:04:38.023Z,34.13
2018-05-27T03:07:06.503Z,30.83
2018-05-27T03:09:34.272Z,30.08
2018-05-27T03:12:02.549Z,27.15
2018-05-27T03:14:31.644Z,28.52
2018-05-27T03:17:00.013Z,30.00
2018-05-27T03:19:28.602Z,32.30
2018-05-27T03:21:56.259Z,28.48
2018-05-27T03:24:24.443Z,30.65
2018-05-27T03:26:52.103Z,28.60
2018-05-27T03:29:20.171Z,28.52
2018-05-27T03:31:48.233Z,28.30
2018-05-27T03:34:17.022Z,29.70
2018-05-27T03:36:46.027Z,28.42
2018-05-27T03:39:14.596Z,27.85
2018-05-27T03:41:42.253Z,27.10
2018-05-27T03:44:10.325Z,27.25
2018-05-27T03:46:39.222Z,36.20
2018-05-27T03:49:06.989Z,32.40
2018-05-27T03:51:35.166Z,32.67
2018-05-27T03:54:02.814Z,35.28
2018-05-27T03:56:30.483Z,34.90
2018-05-27T03:58:58.246Z,30.55
2018-05-27T04:01:26.822Z,31.30
2018-05-27T04:04:06.368Z,33.53
2018-05-27T04:06:55.750Z,36.85
2018-05-27T04:09:24.221Z,37.30
2018-05-27T04:11:52.397Z,33.85
2018-05-27T04:14:20.053Z,34.30
2018-05-27T04:16:48.221Z,34.47
2018-05-27T04:19:16.399Z,33.25
2018-05-27T04:21:44.899Z,35.55
2018-05-27T04:24:12.534Z,32.38
2018-05-27T04:26:40.299Z,34.22
2018-05-27T04:29:08.480Z,34.65
2018-05-27T04:31:36.130Z,33.80
2018-05-27T04:34:04.309Z,35.28
2018-05-27T04:36:32.528Z,32.88
2018-05-27T04:39:00.250Z,30.20
2018-05-27T04:41:28.419Z,31.33
2018-05-27T04:43:56.186Z,31.58
2018-05-27T04:46:24.362Z,30.75
2018-05-27T04:48:52.534Z,30.88
2018-05-27T04:51:20.278Z,29.95
2018-05-27T04:53:48.664Z,32.30
2018-05-27T04:56:16.332Z,34.22
2018-05-27T04:58:44.504Z,31.58
2018-05-27T05:01:12.747Z,30.30
2018-05-27T05:03:40.448Z,30.62
2018-05-27T05:06:08.206Z,30.50
2018-05-27T05:08:36.378Z,31.33
2018-05-27T05:11:04.035Z,30.88
2018-05-27T05:13:32.624Z,29.80
2018-05-27T05:16:00.384Z,30.37
2018-05-27T05:18:28.042Z,28.87
2018-05-27T05:20:56.526Z,29.27
2018-05-27T05:23:24.289Z,28.90
2018-05-27T05:25:52.464Z,28.77
2018-05-27T05:28:20.329Z,30.80
2018-05-27T05:30:48.503Z,27.80
2018-05-27T05:33:16.165Z,29.80
2018-05-27T05:35:44.419Z,27.02
2018-05-27T05:38:12.504Z,27.00
2018-05-27T05:40:40.165Z,27.17
2018-05-27T05:43:09.178Z,25.70
2018-05-27T05:45:36.940Z,26.17
2018-05-27T05:48:04.996Z,25.08
2018-05-27T05:50:32.753Z,25.45
2018-05-27T05:53:00.628Z,25.65
2018-05-27T05:55:28.297Z,26.55
2018-05-27T05:57:56.479Z,26.67
2018-05-27T06:00:24.129Z,26.05
2018-05-27T06:02:52.397Z,26.15
2018-05-27T06:05:20.172Z,25.60
2018-05-27T06:07:48.287Z,25.50
2018-05-27T06:10:16.324Z,26.73
2018-05-27T06:12:44.483Z,26.83
2018-05-27T06:15:12.356Z,25.05
2018-05-27T06:17:40.540Z,25.70
2018-05-27T06:20:09.642Z,25.33
2018-05-27T06:22:38.519Z,27.70
2018-05-27T06:25:06.280Z,27.55
2018-05-27T06:27:34.439Z,26.62
2018-05-27T06:30:03.029Z,25.27
2018-05-27T06:32:30.772Z,24.80
2018-05-27T06:34:58.438Z,23.92
2018-05-27T06:37:26.793Z,24.37
2018-05-27T06:39:55.406Z,24.37
2018-05-27T06:42:23.186Z,23.38
2018-05-27T06:44:51.865Z,23.27
2018-05-27T06:47:20.540Z,23.60
2018-05-27T06:49:48.317Z,25.73
2018-05-27T06:52:16.374Z,23.27
2018-05-27T06:54:44.955Z,23.77
2018-05-27T06:57:12.826Z,21.20
2018-05-27T06:59:40.595Z,21.42
2018-05-27T07:02:08.354Z,20.40
2018-05-27T07:04:36.576Z,19.50
2018-05-27T07:07:05.221Z,20.83
2018-05-27T07:09:33.078Z,19.33
2018-05-27T07:12:00.935Z,20.08
2018-05-27T07:14:28.573Z,19.70
2018-05-27T07:16:56.363Z,17.92
2018-05-27T07:19:25.483Z,19.85
2018-05-27T07:21:54.466Z,18.05
2018-05-27T07:24:22.530Z,20.05
2018-05-27T07:26:50.295Z,17.83
2018-05-27T07:29:18.472Z,19.15
2018-05-27T07:31:46.647Z,15.93
2018-05-27T07:34:14.422Z,15.02
2018-05-27T07:36:42.467Z,16.77
2018-05-27T07:39:10.748Z,16.15
2018-05-27T07:41:38.503Z,15.70
2018-05-27T07:44:06.791Z,18.35
2018-05-27T07:46:35.940Z,16.33
2018-05-27T07:49:04.466Z,15.90
2018-05-27T07:51:32.532Z,16.77
2018-05-27T07:54:00.290Z,16.75
2018-05-27T07:56:28.574Z,17.30
2018-05-27T07:58:56.319Z,16.25
2018-05-27T08:01:24.498Z,19.23
2018-05-27T08:03:52.669Z,15.23
2018-05-27T08:06:20.446Z,15.48
2018-05-27T08:08:48.510Z,14.35
2018-05-27T08:11:16.784Z,13.23
2018-05-27T08:13:44.949Z,12.52
2018-05-27T08:16:12.624Z,14.85
2018-05-27T08:18:40.383Z,10.23
2018-05-27T08:21:08.458Z,9.85
2018-05-27T08:23:37.350Z,12.35
2018-05-27T08:26:05.106Z,9.80
2018-05-27T08:28:32.983Z,9.82
2018-05-27T08:31:00.572Z,9.70
2018-05-27T08:33:29.427Z,10.38
2018-05-27T08:35:59.144Z,10.32
2018-05-27T08:38:27.191Z,9.50
2018-05-27T08:40:55.885Z,9.38
2018-05-27T08:43:25.237Z,9.50
2018-05-27T08:45:53.781Z,11.43
2018-05-27T08:48:22.757Z,9.32
2018-05-27T08:50:51.348Z,9.52
2018-05-27T08:53:19.116Z,10.35
2018-05-27T08:55:48.308Z,12.60
2018-05-27T08:58:16.575Z,8.68
2018-05-27T09:00:45.083Z,9.13
2018-05-27T09:03:12.824Z,10.05
2018-05-27T09:05:41.111Z,9.40
2018-05-27T09:08:08.966Z,10.82
2018-05-27T09:10:36.624Z,10.07
2018-05-27T09:13:04.391Z,10.85
2018-05-27T09:15:33.386Z,12.63
2018-05-27T09:18:01.034Z,10.10
2018-05-27T09:20:28.807Z,10.43
2018-05-27T09:22:56.461Z,9.88
2018-05-27T09:25:24.525Z,9.40
2018-05-27T09:27:52.329Z,11.48
2018-05-27T09:30:20.791Z,9.00
2018-05-27T09:32:48.440Z,9.02
2018-05-27T09:35:17.245Z,10.40
2018-05-27T09:37:45.393Z,9.90
2018-05-27T09:40:14.102Z,8.32
2018-05-27T09:42:43.299Z,8.30
2018-05-27T09:45:11.129Z,7.43
2018-05-27T09:47:38.743Z,7.90
2018-05-27T09:50:07.398Z,9.63
2018-05-27T09:52:36.183Z,10.35
2018-05-27T09:55:04.375Z,7.50
2018-05-27T09:57:32.522Z,7.57
2018-05-27T10:00:00.719Z,9.27
2018-05-27T10:02:30.415Z,8.18
2018-05-27T10:04:58.603Z,8.60
2018-05-27T10:07:26.757Z,6.47
2018-05-27T10:09:54.628Z,10.10
2018-05-27T10:12:22.792Z,8.65
2018-05-27T10:14:50.682Z,8.07
2018-05-27T10:17:18.433Z,7.93
2018-05-27T10:19:46.601Z,8.35
2018-05-27T10:22:14.409Z,8.38
2018-05-27T10:24:42.541Z,9.18
2018-05-27T10:27:10.811Z,7.22
2018-05-27T10:29:38.576Z,7.97
2018-05-27T10:32:07.461Z,7.62
2018-05-27T10:34:35.239Z,9.38
2018-05-27T10:37:02.991Z,7.82
2018-05-27T10:39:30.853Z,8.52
2018-05-27T10:41:58.775Z,10.52
2018-05-27T10:44:26.597Z,6.72
2018-05-27T10:46:54.557Z,8.05
2018-05-27T10:49:22.361Z,6.87
2018-05-27T10:51:50.704Z,6.90
2018-05-27T10:54:19.006Z,9.00
2018-05-27T10:56:48.271Z,6.87
2018-05-27T10:59:16.451Z,5.95
2018-05-27T11:01:44.719Z,6.40
2018-05-27T11:04:12.473Z,7.75
2018-05-27T11:06:40.971Z,6.32
2018-05-27T11:09:09.965Z,9.18
2018-05-27T11:11:39.274Z,7.70
2018-05-27T11:14:07.434Z,10.65
2018-05-27T11:16:36.285Z,6.68
2018-05-27T11:19:04.599Z,6.20
2018-05-27T11:21:32.245Z,7.28
2018-05-27T11:24:00.440Z,5.40
2018-05-27T11:26:28.592Z,5.68
2018-05-27T11:28:56.476Z,6.35
2018-05-27T11:31:24.330Z,8.85
2018-05-27T11:33:52.509Z,6.00
2018-05-27T11:36:20.279Z,7.10
2018-05-27T11:38:48.643Z,7.43
2018-05-27T11:41:16.425Z,9.50
2018-05-27T11:43:44.628Z,7.20
2018-05-27T11:46:13.089Z,10.93
2018-05-27T11:48:40.759Z,11.45
2018-05-27T11:51:09.226Z,6.60
2018-05-27T11:53:37.103Z,7.90
2018-05-27T11:56:04.877Z,6.37
2018-05-27T11:58:33.433Z,7.05
2018-05-27T12:01:01.287Z,5.35
2018-05-27T12:03:29.255Z,5.90
2018-05-27T12:05:56.917Z,12.85
2018-05-27T12:08:24.683Z,12.13
2018-05-27T12:10:52.547Z,8.73
2018-05-27T12:13:20.605Z,7.05
2018-05-27T12:15:48.273Z,11.68
2018-05-27T12:18:16.471Z,12.10
2018-05-27T12:20:44.829Z,4.72
2018-05-27T12:23:12.678Z,5.68
2018-05-27T12:25:41.284Z,7.25
2018-05-27T12:28:09.053Z,4.80
2018-05-27T12:30:36.908Z,4.80
2018-05-27T12:33:04.679Z,5.80
2018-05-27T12:35:32.532Z,5.45
2018-05-27T12:38:00.728Z,9.38
2018-05-27T12:40:28.466Z,4.68
2018-05-27T12:42:57.065Z,5.32
2018-05-27T12:45:24.928Z,6.60
2018-05-27T12:47:52.692Z,6.07
2018-05-27T12:50:20.652Z,8.13
2018-05-27T12:52:48.312Z,4.45
2018-05-27T12:55:16.481Z,5.12
2018-05-27T12:57:44.677Z,4.10
2018-05-27T13:00:13.963Z,8.90
2018-05-27T13:02:42.545Z,5.35
2018-05-27T13:05:10.824Z,4.62
2018-05-27T13:07:38.479Z,5.53
2018-05-27T13:10:06.539Z,8.65
2018-05-27T13:12:34.825Z,5.05
2018-05-27T13:15:02.690Z,7.22
2018-05-27T13:17:30.558Z,9.57
2018-05-27T13:19:58.743Z,5.87
2018-05-27T13:22:26.638Z,5.10
2018-05-27T13:24:55.177Z,4.90
2018-05-27T13:27:23.554Z,10.05
2018-05-27T13:29:51.420Z,5.78
2018-05-27T13:32:19.201Z,6.85
2018-05-27T13:34:47.049Z,5.43
2018-05-27T13:37:14.826Z,5.25
2018-05-27T13:39:42.717Z,5.35
2018-05-27T13:42:11.168Z,6.35
2018-05-27T13:44:38.911Z,5.62
2018-05-27T13:47:06.787Z,7.50
2018-05-27T13:49:35.265Z,5.32
2018-05-27T13:52:02.932Z,5.25
2018-05-27T13:54:30.708Z,7.45
2018-05-27T13:56:58.476Z,8.85
2018-05-27T13:59:26.515Z,4.53
2018-05-27T14:01:54.706Z,4.45
2018-05-27T14:04:22.571Z,5.03
2018-05-27T14:06:50.729Z,7.65
2018-05-27T14:09:18.408Z,5.90
2018-05-27T14:11:47.093Z,7.90
2018-05-27T14:14:14.768Z,4.40
2018-05-27T14:16:42.712Z,8.52
2018-05-27T14:19:10.490Z,7.40
2018-05-27T14:21:38.641Z,5.65
2018-05-27T14:24:06.427Z,7.15
2018-05-27T14:26:34.476Z,4.60
2018-05-27T14:29:02.671Z,5.72
2018-05-27T14:31:30.544Z,5.07
2018-05-27T14:33:58.590Z,4.95
2018-05-27T14:36:26.671Z,6.30
2018-05-27T14:38:54.446Z,7.03
2018-05-27T14:41:22.621Z,10.55
2018-05-27T14:43:50.981Z,4.32
2018-05-27T14:46:18.643Z,9.32
2018-05-27T14:48:46.523Z,4.80
2018-05-27T14:51:14.669Z,8.57
2018-05-27T14:53:42.548Z,7.32
2018-05-27T14:56:10.755Z,4.57
2018-05-27T14:58:39.410Z,5.35
2018-05-27T15:01:08.302Z,110.78
2018-05-27T15:03:36.362Z,6.78
2018-05-27T15:06:04.489Z,5.95
2018-05-27T15:08:32.723Z,5.90
2018-05-27T15:11:00.372Z,4.53
2018-05-27T15:13:28.652Z,4.97
2018-05-27T15:15:58.162Z,8.02
2018-05-27T15:18:26.703Z,5.45
2018-05-27T15:20:54.611Z,6.05
2018-05-27T15:23:22.881Z,4.70
2018-05-27T15:25:50.751Z,5.47
2018-05-27T15:28:18.394Z,6.30
2018-05-27T15:30:47.788Z,14.05
2018-05-27T15:33:17.539Z,5.65
2018-05-27T15:35:45.157Z,9.63
2018-05-27T15:38:13.793Z,5.82
2018-05-27T15:40:43.472Z,5.75
2018-05-27T15:43:11.878Z,7.20
2018-05-27T15:45:40.325Z,72.65
2018-05-27T15:48:09.318Z,13.07
2018-05-27T15:50:36.967Z,8.07
2018-05-27T15:53:04.757Z,30.05
2018-05-27T15:55:32.621Z,8.68
2018-05-27T15:58:01.657Z,6.78
2018-05-27T16:00:29.476Z,8.25
2018-05-27T16:02:58.557Z,8.02
2018-05-27T16:05:26.769Z,6.85
2018-05-27T16:07:55.315Z,8.27
2018-05-27T16:10:23.188Z,6.10
2018-05-27T16:12:50.936Z,8.48
2018-05-27T16:15:18.746Z,5.78
2018-05-27T16:17:47.825Z,5.82
2018-05-27T16:20:16.799Z,7.10
2018-05-27T16:22:44.462Z,6.20
2018-05-27T16:25:12.626Z,10.65
2018-05-27T16:27:40.804Z,6.47
2018-05-27T16:30:09.000Z,7.50
2018-05-27T16:32:37.426Z,7.60
2018-05-27T16:35:05.805Z,8.95
2018-05-27T16:37:34.318Z,6.15
2018-05-27T16:40:02.907Z,7.45
2018-05-27T16:42:30.558Z,5.37
2018-05-27T16:44:58.841Z,8.07
2018-05-27T16:47:26.497Z,5.87
2018-05-27T16:49:55.482Z,5.40
2018-05-27T16:52:23.146Z,6.55
2018-05-27T16:54:52.263Z,6.82
2018-05-27T16:57:20.431Z,6.12
2018-05-27T16:59:48.491Z,6.30
2018-05-27T17:02:17.269Z,6.82
2018-05-27T17:04:44.938Z,7.95
2018-05-27T17:07:12.706Z,9.18
2018-05-27T17:09:40.479Z,11.63
2018-05-27T17:12:08.640Z,6.37
2018-05-27T17:14:36.630Z,7.55
2018-05-27T17:17:04.773Z,5.30
2018-05-27T17:19:33.782Z,5.70
2018-05-27T17:22:01.632Z,10.07
2018-05-27T17:24:30.120Z,5.10
2018-05-27T17:26:58.629Z,10.73
2018-05-27T17:29:26.811Z,7.00
2018-05-27T17:31:54.959Z,6.47
2018-05-27T17:34:22.732Z,6.28
2018-05-27T17:36:51.702Z,6.18
2018-05-27T17:39:20.688Z,8.65
2018-05-27T17:41:49.397Z,6.50
2018-05-27T17:44:18.570Z,14.68
2018-05-27T17:46:47.581Z,11.85
2018-05-27T17:49:15.218Z,7.07
2018-05-27T17:51:42.894Z,14.80
2018-05-27T17:54:10.661Z,9.18
2018-05-27T17:56:38.831Z,5.70
2018-05-27T17:59:06.478Z,8.65
2018-05-27T18:01:34.667Z,10.05
2018-05-27T18:04:02.837Z,9.18
2018-05-27T18:06:30.696Z,6.78
2018-05-27T18:08:58.453Z,17.00
2018-05-27T18:11:26.548Z,12.88
2018-05-27T18:13:54.710Z,16.10
2018-05-27T18:16:22.572Z,11.77
2018-05-27T18:18:50.851Z,10.07
2018-05-27T18:21:19.427Z,10.70
2018-05-27T18:23:48.471Z,39.13
2018-05-27T18:26:16.696Z,40.40
2018-05-27T18:28:44.345Z,18.20
2018-05-27T18:31:12.954Z,18.85
2018-05-27T18:33:40.699Z,47.15
2018-05-27T18:36:08.370Z,30.42
2018-05-27T18:38:36.877Z,34.13
2018-05-27T18:41:05.322Z,29.90
2018-05-27T18:43:33.140Z,28.33
2018-05-27T18:46:02.609Z,38.65
2018-05-27T18:48:30.781Z,43.15
2018-05-27T18:50:58.946Z,43.20
2018-05-27T18:53:26.764Z,54.58
2018-05-27T18:55:54.579Z,17.23
2018-05-27T18:58:23.167Z,22.02
2018-05-27T19:00:51.035Z,14.00
2018-05-27T19:03:18.988Z,9.82
2018-05-27T19:05:47.457Z,33.95
2018-05-27T19:08:15.234Z,51.20
2018-05-27T19:10:43.205Z,55.40
2018-05-27T19:13:11.072Z,25.95
2018-05-27T19:15:40.580Z,59.00
2018-05-27T19:18:08.752Z,59.50
2018-05-27T19:20:36.591Z,53.83
2018-05-27T19:23:04.913Z,41.83
2018-05-27T19:25:33.461Z,49.42
2018-05-27T19:28:02.865Z,28.55
2018-05-27T19:30:30.746Z,15.27
2018-05-27T19:32:58.607Z,14.35
2018-05-27T19:35:26.785Z,13.95
2018-05-27T19:37:54.633Z,9.40
2018-05-27T19:40:22.913Z,10.88
2018-05-27T19:42:50.701Z,14.18
2018-05-27T19:45:18.874Z,12.43
2018-05-27T19:47:46.641Z,16.48
2018-05-27T19:50:14.794Z,14.48
2018-05-27T19:52:43.474Z,11.27
2018-05-27T19:55:11.335Z,10.20
2018-05-27T19:57:39.394Z,16.92
2018-05-27T20:00:07.265Z,11.90
2018-05-27T20:02:34.932Z,10.70
2018-05-27T20:05:02.648Z,10.77
2018-05-27T20:07:32.627Z,10.43
2018-05-27T20:10:00.801Z,16.48
2018-05-27T20:12:28.766Z,10.05
2018-05-27T20:14:57.231Z,18.05
2018-05-27T20:17:26.756Z,12.30
2018-05-27T20:19:54.607Z,13.10
2018-05-27T20:22:22.783Z,9.52
2018-05-27T20:24:52.997Z,12.60
2018-05-27T20:27:21.622Z,10.63
2018-05-27T20:29:49.652Z,11.35
2018-05-27T20:32:17.394Z,12.52
2018-05-27T20:34:45.075Z,12.98
2018-05-27T20:37:14.555Z,20.98
2018-05-27T20:39:42.855Z,12.63
2018-05-27T20:42:10.721Z,11.90
2018-05-27T20:44:38.591Z,13.57
2018-05-27T20:47:07.583Z,12.93
2018-05-27T20:49:35.362Z,12.13
2018-05-27T20:52:02.999Z,11.45
2018-05-27T20:54:31.482Z,13.98
2018-05-27T20:56:59.078Z,15.43
2018-05-27T20:59:27.630Z,11.93
2018-05-27T21:01:55.494Z,11.98
2018-05-27T21:04:23.154Z,13.65
2018-05-27T21:06:50.931Z,12.37
2018-05-27T21:09:18.568Z,17.12
2018-05-27T21:11:46.652Z,12.50
2018-05-27T21:14:14.842Z,14.18
2018-05-27T21:16:43.013Z,14.15
2018-05-27T21:19:12.805Z,14.57
2018-05-27T21:21:41.394Z,12.35
2018-05-27T21:24:09.062Z,12.68
2018-05-27T21:26:37.234Z,14.63
2018-05-27T21:29:04.995Z,14.35
2018-05-27T21:31:32.950Z,20.65
2018-05-27T21:34:01.434Z,17.70
2018-05-27T21:36:30.842Z,17.00
2018-05-27T21:38:59.520Z,14.48
2018-05-27T21:41:27.174Z,16.05
2018-05-27T21:43:54.951Z,17.08
2018-05-27T21:46:23.953Z,13.88
2018-05-27T21:48:52.517Z,13.43
2018-05-27T21:51:20.704Z,15.15
2018-05-27T21:53:48.869Z,12.40
2018-05-27T21:56:17.145Z,13.43
2018-05-27T21:58:44.941Z,15.48
2018-05-27T22:01:13.387Z,15.43
2018-05-27T22:03:42.508Z,14.20
2018-05-27T22:06:10.681Z,17.10
2018-05-27T22:08:39.240Z,13.75
2018-05-27T22:11:07.015Z,14.43
2018-05-27T22:13:35.685Z,15.90
2018-05-27T22:16:03.537Z,14.05
2018-05-27T22:18:31.209Z,14.85
2018-05-27T22:20:59.083Z,14.25
2018-05-27T22:23:27.243Z,14.87
2018-05-27T22:25:55.326Z,14.43
2018-05-27T22:28:23.604Z,14.87
2018-05-27T22:30:51.265Z,14.35
2018-05-27T22:33:19.431Z,13.25
2018-05-27T22:35:47.704Z,16.67
2018-05-27T22:38:15.463Z,13.57
2018-05-27T22:40:43.244Z,16.05
2018-05-27T22:43:10.995Z,14.25
2018-05-27T22:45:38.858Z,12.85
2018-05-27T22:48:06.513Z,13.77
2018-05-27T22:50:34.692Z,13.00
2018-05-27T22:53:02.755Z,17.55
2018-05-27T22:55:30.417Z,12.82
2018-05-27T22:57:58.599Z,12.45
2018-05-27T23:00:26.665Z,13.38
2018-05-27T23:02:55.145Z,14.55
2018-05-27T23:05:22.915Z,17.20
2018-05-27T23:07:50.565Z,12.75
2018-05-27T23:10:19.576Z,13.55
2018-05-27T23:12:47.233Z,12.60
2018-05-27T23:15:14.991Z,13.60
2018-05-27T23:17:43.776Z,12.65
2018-05-27T23:20:11.543Z,14.13
2018-05-27T23:22:40.538Z,17.70
2018-05-27T23:25:08.705Z,14.20
2018-05-27T23:27:36.768Z,14.52
2018-05-27T23:30:04.533Z,15.25
2018-05-27T23:32:33.224Z,15.60
2018-05-27T23:35:00.986Z,12.77
2018-05-27T23:37:28.854Z,16.77
2018-05-27T23:39:57.962Z,19.08
2018-05-27T23:42:26.425Z,15.57
2018-05-27T23:44:54.597Z,14.87
2018-05-27T23:47:22.774Z,14.40
2018-05-27T23:49:50.438Z,17.48
2018-05-27T23:52:18.498Z,12.25
2018-05-27T23:54:46.675Z,13.40
2018-05-27T23:57:14.854Z,12.93
2018-05-27T23:59:42.893Z,16.27
